createdAt,value
2019-06-20T05:56:20.370Z,21.80
2019-06-20T05:58:50.611Z,21.70
2019-06-20T06:01:20.306Z,21.70
2019-06-20T06:03:49.702Z,21.70
2019-06-20T06:06:19.210Z,21.60
2019-06-20T06:08:48.928Z,21.50
2019-06-20T06:11:18.426Z,21.40
2019-06-20T06:13:47.926Z,21.40
2019-06-20T06:16:26.095Z,21.50
2019-06-20T06:18:48.576Z,21.40
2019-06-20T06:21:18.078Z,21.40
2019-06-20T06:23:47.886Z,21.40
2019-06-20T06:26:17.289Z,21.50
2019-06-20T06:28:46.895Z,21.60
2019-06-20T06:31:16.294Z,21.60
2019-06-20T06:33:45.745Z,21.80
2019-06-20T06:36:15.307Z,21.80
2019-06-20T06:38:44.810Z,21.90
2019-06-20T06:41:15.653Z,21.90
2019-06-20T06:43:45.151Z,22.00
2019-06-20T06:48:44.053Z,22.00
2019-06-20T06:51:13.584Z,21.90
2019-06-20T06:53:43.172Z,21.90
2019-06-20T06:56:12.657Z,21.90
2019-06-20T06:58:42.073Z,22.00
2019-06-20T07:01:11.576Z,22.20
2019-06-20T07:03:41.187Z,22.20
2019-06-20T07:06:10.787Z,22.20
2019-06-20T07:08:40.186Z,22.30
2019-06-20T07:11:09.594Z,22.30
2019-06-20T07:13:38.993Z,22.50
2019-06-20T07:16:08.493Z,22.50
2019-06-20T07:18:38.001Z,22.60
2019-06-20T07:21:07.504Z,22.60
2019-06-20T07:23:37.011Z,22.60
2019-06-20T07:26:06.513Z,22.70
2019-06-20T07:28:36.026Z,22.90
2019-06-20T07:31:08.287Z,23.00
2019-06-20T07:33:39.223Z,22.80
2019-06-20T07:36:08.727Z,22.90
2019-06-20T07:38:38.277Z,22.90
2019-06-20T07:41:07.840Z,23.00
2019-06-20T07:43:37.450Z,23.20
2019-06-20T07:46:07.056Z,23.30
2019-06-20T07:48:36.504Z,23.40
2019-06-20T07:51:07.704Z,23.40
2019-06-20T07:53:37.304Z,23.50
2019-06-20T07:56:09.379Z,23.50
2019-06-20T07:58:38.715Z,23.50
2019-06-20T08:01:08.171Z,23.60
2019-06-20T08:03:37.640Z,23.80
2019-06-20T08:06:07.039Z,23.80
2019-06-20T08:08:36.476Z,23.90
2019-06-20T08:11:08.341Z,24.00
2019-06-20T08:13:37.732Z,24.10
2019-06-20T08:16:07.089Z,23.90
2019-06-20T08:18:36.458Z,24.00
2019-06-20T08:21:05.864Z,24.10
2019-06-20T08:23:35.326Z,24.00
2019-06-20T08:26:04.672Z,24.10
2019-06-20T08:28:34.090Z,24.30
2019-06-20T08:31:04.733Z,24.30
2019-06-20T08:33:34.319Z,24.30
2019-06-20T08:36:04.594Z,24.30
2019-06-20T08:38:34.140Z,24.40
2019-06-20T08:41:04.601Z,24.50
2019-06-20T08:43:35.376Z,24.50
2019-06-20T08:46:09.957Z,24.60
2019-06-20T08:48:35.667Z,24.60
2019-06-20T08:51:06.474Z,24.60
2019-06-20T08:53:36.149Z,24.70
2019-06-20T08:56:05.610Z,24.70
2019-06-20T08:58:35.037Z,24.80
2019-06-20T09:03:34.855Z,24.80
2019-06-20T09:06:04.464Z,24.90
2019-06-20T09:08:33.919Z,25.00
2019-06-20T09:11:04.005Z,25.00
2019-06-20T09:13:33.672Z,25.00
2019-06-20T09:16:03.111Z,25.10
2019-06-20T09:18:32.535Z,25.30
2019-06-20T09:21:02.160Z,25.30
2019-06-20T09:23:31.547Z,25.40
2019-06-20T09:26:01.972Z,25.40
2019-06-20T09:28:32.503Z,25.50
2019-06-20T09:31:01.816Z,25.60
2019-06-20T09:33:31.222Z,25.60
2019-06-20T09:36:00.603Z,25.60
2019-06-20T09:38:29.961Z,25.70
2019-06-20T09:40:59.471Z,25.90
2019-06-20T09:43:28.829Z,25.80
2019-06-20T09:45:58.415Z,25.80
2019-06-20T09:48:28.114Z,26.00
2019-06-20T09:50:58.544Z,26.10
2019-06-20T09:53:28.000Z,26.10
2019-06-20T09:55:57.815Z,26.20
2019-06-20T09:58:27.239Z,26.30
2019-06-20T10:00:57.455Z,26.50
2019-06-20T10:03:27.022Z,26.80
2019-06-20T10:05:56.712Z,26.90
2019-06-20T10:08:26.253Z,26.90
2019-06-20T10:10:56.274Z,27.00
2019-06-20T10:13:26.908Z,27.20
2019-06-20T10:15:56.353Z,27.10
2019-06-20T10:18:25.697Z,27.00
2019-06-20T10:20:55.044Z,27.00
2019-06-20T10:23:24.504Z,26.90
2019-06-20T10:25:53.932Z,27.00
2019-06-20T10:28:23.493Z,27.10
2019-06-20T10:30:53.405Z,27.10
2019-06-20T10:33:56.884Z,27.20
2019-06-20T10:36:26.539Z,27.20
2019-06-20T10:38:56.909Z,27.10
2019-06-20T10:41:26.395Z,27.00
2019-06-20T10:43:56.649Z,27.00
2019-06-20T10:46:26.228Z,27.10
2019-06-20T10:48:55.579Z,27.10
2019-06-20T10:51:38.615Z,27.10
2019-06-20T10:54:08.030Z,27.10
2019-06-20T10:56:37.449Z,27.10
2019-06-20T10:59:06.953Z,27.10
2019-06-20T11:01:36.335Z,27.40
2019-06-20T11:04:05.681Z,27.40
2019-06-20T11:06:35.478Z,27.40
2019-06-20T11:09:09.409Z,27.50
2019-06-20T11:11:40.153Z,27.60
2019-06-20T11:14:09.910Z,27.50
2019-06-20T11:16:40.477Z,27.70
2019-06-20T11:19:10.478Z,27.70
2019-06-20T11:21:41.507Z,27.70
2019-06-20T11:24:11.230Z,27.80
2019-06-20T11:26:41.116Z,27.80
2019-06-20T11:29:10.656Z,27.80
2019-06-20T11:31:43.396Z,28.00
2019-06-20T11:34:11.065Z,28.10
2019-06-20T11:36:40.427Z,28.20
2019-06-20T11:39:09.870Z,28.20
2019-06-20T11:41:39.593Z,28.40
2019-06-20T11:44:09.093Z,28.50
2019-06-20T11:46:38.621Z,28.50
2019-06-20T11:49:08.233Z,28.50
2019-06-20T11:51:37.660Z,28.70
2019-06-20T11:54:07.079Z,28.60
2019-06-20T11:56:36.489Z,28.70
2019-06-20T11:59:06.280Z,28.80
2019-06-20T12:01:35.697Z,29.00
2019-06-20T12:04:05.287Z,29.10
2019-06-20T12:06:34.636Z,29.00
2019-06-20T12:09:05.453Z,29.20
2019-06-20T12:11:34.925Z,29.20
2019-06-20T12:14:04.367Z,29.30
2019-06-20T12:16:33.712Z,29.50
2019-06-20T12:19:03.090Z,29.40
2019-06-20T12:21:32.531Z,29.80
2019-06-20T12:25:59.284Z,29.90
2019-06-20T12:28:28.761Z,30.10
2019-06-20T12:30:58.183Z,30.30
2019-06-20T12:33:27.632Z,30.30
2019-06-20T12:35:57.080Z,30.10
2019-06-20T12:38:26.486Z,30.20
2019-06-20T12:40:55.895Z,30.30
2019-06-20T12:43:25.474Z,30.30
2019-06-20T12:45:54.845Z,30.80
2019-06-20T12:48:24.258Z,31.00
2019-06-20T12:50:53.707Z,30.90
2019-06-20T12:53:23.332Z,31.20
2019-06-20T12:55:52.765Z,31.30
2019-06-20T12:58:22.197Z,31.20
2019-06-20T13:00:51.648Z,31.40
2019-06-20T13:03:21.059Z,31.50
2019-06-20T13:05:50.433Z,31.30
2019-06-20T13:08:19.921Z,32.00
2019-06-20T13:10:49.216Z,32.30
2019-06-20T13:13:18.675Z,32.60
2019-06-20T13:15:48.995Z,33.10
2019-06-20T13:18:18.543Z,33.20
2019-06-20T13:20:48.511Z,33.40
2019-06-20T13:23:18.184Z,33.20
2019-06-20T13:25:48.897Z,32.90
2019-06-20T13:28:18.475Z,33.00
2019-06-20T13:30:50.823Z,33.20
2019-06-20T13:33:19.021Z,33.00
2019-06-20T13:35:48.733Z,32.80
2019-06-20T13:38:19.357Z,33.00
2019-06-20T13:40:49.360Z,33.70
2019-06-20T13:43:18.794Z,34.40
2019-06-20T13:45:48.153Z,34.90
2019-06-20T13:48:17.906Z,34.80
2019-06-20T13:50:47.460Z,34.30
2019-06-20T13:53:16.911Z,34.30
2019-06-20T13:55:47.651Z,34.20
2019-06-20T13:58:17.230Z,34.60
2019-06-20T14:00:47.883Z,35.70
2019-06-20T14:06:01.118Z,37.00
2019-06-20T14:08:30.530Z,37.00
2019-06-20T14:10:59.949Z,36.90
2019-06-20T14:13:29.316Z,36.00
2019-06-20T14:15:58.665Z,35.30
2019-06-20T14:18:28.014Z,35.30
2019-06-20T14:20:57.460Z,35.20
2019-06-20T14:23:26.803Z,34.70
2019-06-20T14:25:56.360Z,34.50
2019-06-20T14:28:25.806Z,34.40
2019-06-20T14:30:55.202Z,34.20
2019-06-20T14:33:24.595Z,33.90
2019-06-20T14:35:54.810Z,33.80
2019-06-20T14:38:24.063Z,33.90
2019-06-20T14:40:56.561Z,33.90
2019-06-20T14:43:26.024Z,33.50
2019-06-20T14:45:56.468Z,33.40
2019-06-20T14:48:26.061Z,33.50
2019-06-20T14:50:55.565Z,34.20
2019-06-20T14:53:24.959Z,34.50
2019-06-20T14:55:55.984Z,36.00
2019-06-20T14:58:26.334Z,37.00
2019-06-20T15:00:55.977Z,37.70
2019-06-20T15:03:25.332Z,38.10
2019-06-20T15:05:54.760Z,38.90
2019-06-20T15:08:25.106Z,39.70
2019-06-20T15:10:54.581Z,40.00
2019-06-20T15:13:23.935Z,40.30
2019-06-20T15:15:53.458Z,40.60
2019-06-20T16:58:17.384Z,33.60
2019-06-20T17:00:46.883Z,32.90
2019-06-20T17:03:16.419Z,32.80
2019-06-20T17:05:45.874Z,32.40
2019-06-20T17:08:15.299Z,32.10
2019-06-20T17:10:45.820Z,32.10
2019-06-20T17:13:15.227Z,31.70
2019-06-20T17:15:44.694Z,31.60
2019-06-20T17:18:14.331Z,31.60
2019-06-20T17:20:43.734Z,31.20
2019-06-20T17:23:13.237Z,30.60
2019-06-20T17:26:05.072Z,29.60
2019-06-20T17:28:34.568Z,27.30
2019-06-20T17:31:04.083Z,27.40
2019-06-20T17:33:33.584Z,27.30
2019-06-20T17:36:17.176Z,23.70
2019-06-20T17:38:34.129Z,21.50
2019-06-20T17:41:03.564Z,21.40
2019-06-20T17:43:33.134Z,22.80
2019-06-20T17:46:02.840Z,20.80
2019-06-20T17:48:32.446Z,21.00
2019-06-20T17:51:01.847Z,21.00
2019-06-20T17:58:35.074Z,20.70
2019-06-20T18:03:33.625Z,21.00
2019-06-20T18:06:03.180Z,21.40
2019-06-20T18:11:01.671Z,21.30
2019-06-20T18:13:31.235Z,21.30
2019-06-20T18:16:01.098Z,21.50
2019-06-20T18:18:30.705Z,21.50
2019-06-20T18:21:00.302Z,21.50
2019-06-20T18:23:29.804Z,21.40
2019-06-20T18:28:28.509Z,21.00
2019-06-20T18:30:58.214Z,21.40
2019-06-20T18:33:27.726Z,21.50
2019-06-20T18:38:26.432Z,21.60
2019-06-20T18:40:55.799Z,21.30
2019-06-20T18:43:27.887Z,21.40
2019-06-20T18:45:57.399Z,21.10
2019-06-20T18:48:26.809Z,20.70
2019-06-20T18:50:56.300Z,21.10
2019-06-20T18:53:25.811Z,20.70
2019-06-20T18:58:24.406Z,20.50
2019-06-20T19:00:53.904Z,20.40
2019-06-20T19:05:53.118Z,20.60
2019-06-20T19:08:22.630Z,20.40
2019-06-20T19:13:21.035Z,20.80
2019-06-20T19:15:50.416Z,20.60
2019-06-20T19:18:22.873Z,20.70
2019-06-20T19:20:52.713Z,20.60
2019-06-20T19:23:22.310Z,20.40
2019-06-20T19:28:20.915Z,20.10
2019-06-20T19:30:51.650Z,20.10
2019-06-20T19:33:21.145Z,20.40
2019-06-20T19:35:50.646Z,20.60
2019-06-20T19:38:20.153Z,20.80
2019-06-20T19:43:18.749Z,20.90
2019-06-20T19:45:48.255Z,21.00
2019-06-20T19:48:17.758Z,21.50
2019-06-20T19:50:47.179Z,21.50
2019-06-20T19:55:45.864Z,21.30
2019-06-20T19:58:15.271Z,21.40
2019-06-20T20:00:44.876Z,21.30
2019-06-20T20:05:44.286Z,20.80
2019-06-20T20:08:13.732Z,20.30
2019-06-20T20:10:48.935Z,20.70
2019-06-20T20:13:18.536Z,20.80
2019-06-20T20:15:47.967Z,20.30
2019-06-20T20:18:17.552Z,19.90
2019-06-20T20:20:47.753Z,19.40
2019-06-20T20:23:17.374Z,19.20
2019-06-20T20:25:46.731Z,19.30
2019-06-20T20:28:17.300Z,19.20
2019-06-20T20:30:46.701Z,19.20
2019-06-20T20:33:16.194Z,19.20
2019-06-20T20:35:45.616Z,19.10
2019-06-20T20:38:14.968Z,18.90
2019-06-20T20:40:44.899Z,18.90
2019-06-20T20:43:14.421Z,18.70
2019-06-20T20:45:43.998Z,18.60
2019-06-20T20:50:44.142Z,18.70
2019-06-20T20:53:13.588Z,18.50
2019-06-20T20:55:43.178Z,18.50
2019-06-20T20:58:12.693Z,18.40
2019-06-20T21:00:54.574Z,18.60
2019-06-20T21:03:24.082Z,18.50
2019-06-20T21:05:53.652Z,18.40
2019-06-20T21:08:23.097Z,18.40
2019-06-20T21:13:21.789Z,18.40
2019-06-20T21:15:51.189Z,18.40
2019-06-20T21:22:10.894Z,18.30
2019-06-20T21:24:40.497Z,18.30
2019-06-20T21:27:09.992Z,18.40
2019-06-20T21:29:39.476Z,18.40
2019-06-20T21:32:08.911Z,18.40
2019-06-20T21:34:38.417Z,18.50
2019-06-20T21:37:07.915Z,18.30
2019-06-20T21:39:38.803Z,18.50
2019-06-20T21:42:08.567Z,18.60
2019-06-20T21:44:38.066Z,18.50
2019-06-20T21:47:07.578Z,18.50
2019-06-20T21:49:37.081Z,18.60
2019-06-20T21:52:06.490Z,18.60
2019-06-20T21:54:35.982Z,18.50
2019-06-20T21:57:05.485Z,18.40
2019-06-20T21:59:34.995Z,18.30
2019-06-20T22:02:04.499Z,18.10
2019-06-20T22:04:33.999Z,18.00
2019-06-20T22:07:03.503Z,18.20
2019-06-20T22:09:33.025Z,18.20
2019-06-20T22:12:02.613Z,17.90
2019-06-20T22:14:32.579Z,18.30
2019-06-20T22:17:02.212Z,18.20
2019-06-20T22:19:31.748Z,18.30
2019-06-20T22:22:01.116Z,18.20
2019-06-20T22:24:30.619Z,18.10
2019-06-20T22:27:00.152Z,18.10
2019-06-20T22:29:29.666Z,18.10
2019-06-20T22:34:28.390Z,18.10
2019-06-20T22:36:57.858Z,18.00
2019-06-20T22:39:27.363Z,17.90
2019-06-20T22:41:56.872Z,18.00
2019-06-20T22:46:55.603Z,18.10
2019-06-20T22:50:14.328Z,18.00
2019-06-20T22:52:43.937Z,18.10
2019-06-20T22:55:13.441Z,17.90
2019-06-20T22:57:43.250Z,17.90
2019-06-20T23:00:12.808Z,17.70
2019-06-20T23:02:42.380Z,17.70
2019-06-20T23:05:12.073Z,17.70
2019-06-20T23:07:41.578Z,17.80
2019-06-20T23:10:12.747Z,17.90
2019-06-20T23:12:42.437Z,17.90
2019-06-20T23:15:11.940Z,18.00
2019-06-20T23:17:41.444Z,19.50
2019-06-20T23:20:11.044Z,18.20
2019-06-20T23:22:40.749Z,18.20
2019-06-20T23:25:10.741Z,18.30
2019-06-20T23:27:40.478Z,18.30
2019-06-20T23:32:39.482Z,18.10
2019-06-20T23:35:09.404Z,18.00
2019-06-20T23:37:38.908Z,18.00
2019-06-20T23:40:08.714Z,18.10
2019-06-20T23:42:38.116Z,18.00
2019-06-20T23:45:07.841Z,18.10
2019-06-20T23:47:37.634Z,18.20
2019-06-20T23:52:38.383Z,18.30
2019-06-20T23:55:07.889Z,18.30
2019-06-20T23:57:37.398Z,18.20
